Skytop, Pennsylvania
Current Conditions -  °F | °C
As of 8:20 PM on Wednesday 26 Nov 2014 (Local Time) from KMPO Reporting Station
Light Snow Light Snow  
Wind Chill: 18°   Ceiling: 3700
Heat Index: 29°   Visibility: 2mi
Dew Point: 25°   Wind: 15mph
Humidity: 85%   Direction: 340°NNW
Pressure: 29.81"   Gusts: 25mph
Location:  41.23°N, 75.24°W
Report Text: KMPO 270120Z AUTO 34013G22KT 2SM -SN BR OVC037 M02/M04 A2981 RMK AO2 P0000 T10171039
Loading
Personal Weather Stations






























Interactive Weather Map New forecast layout! Learn more

10-Day Weather Forecast

Advertisements
Track Severe Weather on mobile